createdAt,value
2018-09-29T00:02:04.076Z,48.01
2018-09-29T00:04:30.848Z,49.24
2018-09-29T00:06:58.882Z,48.81
2018-09-29T00:09:25.583Z,48.74
2018-09-29T00:11:53.377Z,48.34
2018-09-29T00:14:20.057Z,48.57
2018-09-29T00:16:47.652Z,48.76
2018-09-29T00:19:15.285Z,48.69
2018-09-29T00:21:42.746Z,48.44
2018-09-29T00:24:10.440Z,48.38
2018-09-29T00:26:38.022Z,48.28
2018-09-29T00:29:06.828Z,48.11
2018-09-29T00:31:33.505Z,47.98
2018-09-29T00:34:01.082Z,48.14
2018-09-29T00:36:29.281Z,47.77
2018-09-29T00:38:56.923Z,47.99
2018-09-29T00:41:25.114Z,48.89
2018-09-29T00:43:52.603Z,48.28
2018-09-29T00:46:20.152Z,48.07
2018-09-29T00:48:47.800Z,48.59
2018-09-29T00:51:15.321Z,48.50
2018-09-29T00:53:42.893Z,48.05
2018-09-29T00:56:10.437Z,47.72
2018-09-29T00:58:37.957Z,47.57
2018-09-29T01:01:05.382Z,47.72
2018-09-29T01:03:33.000Z,48.24
2018-09-29T01:05:59.718Z,48.60
2018-09-29T01:08:28.077Z,48.37
2018-09-29T01:10:55.733Z,48.50
2018-09-29T01:13:23.263Z,47.63
2018-09-29T01:15:49.992Z,47.81
2018-09-29T01:18:17.609Z,48.08
2018-09-29T01:20:45.134Z,48.71
2018-09-29T01:23:12.768Z,47.76
2018-09-29T01:25:40.297Z,47.71
2018-09-29T01:28:06.936Z,47.48
2018-09-29T01:30:35.580Z,48.21
2018-09-29T01:33:03.173Z,47.56
2018-09-29T01:35:30.768Z,48.35
2018-09-29T01:37:59.484Z,48.26
2018-09-29T01:40:27.005Z,48.27
2018-09-29T01:42:53.729Z,47.55
2018-09-29T01:45:21.589Z,48.22
2018-09-29T01:47:49.146Z,47.53
2018-09-29T01:50:16.801Z,47.87
2018-09-29T01:52:44.417Z,48.02
2018-09-29T01:55:11.081Z,47.41
2018-09-29T01:57:38.808Z,47.96
2018-09-29T02:00:06.468Z,47.05
2018-09-29T02:02:34.082Z,47.18
2018-09-29T02:05:01.677Z,47.77
2018-09-29T02:07:29.249Z,47.19
2018-09-29T02:09:55.977Z,47.16
2018-09-29T02:12:23.584Z,48.07
2018-09-29T02:14:51.152Z,47.24
2018-09-29T02:17:18.805Z,47.98
2018-09-29T02:19:46.293Z,47.26
2018-09-29T02:22:13.272Z,47.67
2018-09-29T02:24:39.946Z,47.89
2018-09-29T02:27:06.713Z,46.93
2018-09-29T02:29:34.424Z,47.10
2018-09-29T02:32:01.069Z,47.54
2018-09-29T02:34:27.741Z,47.88
2018-09-29T02:36:54.492Z,47.92
2018-09-29T02:39:22.049Z,47.34
2018-09-29T02:41:49.633Z,47.43
2018-09-29T02:44:16.317Z,47.66
2018-09-29T02:46:44.266Z,46.92
2018-09-29T02:49:10.968Z,47.00
2018-09-29T02:51:38.643Z,47.10
2018-09-29T02:54:06.456Z,47.80
2018-09-29T02:56:33.113Z,47.99
2018-09-29T02:59:00.237Z,47.85
2018-09-29T03:01:26.889Z,47.13
2018-09-29T03:03:53.649Z,47.54
2018-09-29T03:06:20.346Z,47.22
2018-09-29T03:08:47.973Z,47.78
2018-09-29T03:11:15.601Z,47.67
2018-09-29T03:13:43.357Z,47.40
2018-09-29T03:16:10.889Z,48.27
2018-09-29T03:18:37.561Z,47.48
2018-09-29T03:21:05.717Z,47.82
2018-09-29T03:23:32.393Z,47.03
2018-09-29T03:26:00.881Z,47.57
2018-09-29T03:28:29.704Z,47.33
2018-09-29T03:30:56.361Z,47.71
2018-09-29T03:33:23.061Z,47.50
2018-09-29T03:35:50.724Z,46.69
2018-09-29T03:38:18.482Z,47.48
2018-09-29T03:40:45.953Z,47.56
2018-09-29T03:43:13.600Z,47.02
2018-09-29T03:45:40.655Z,46.85
2018-09-29T03:48:08.141Z,46.79
2018-09-29T03:50:36.387Z,47.63
2018-09-29T03:53:03.886Z,47.53
2018-09-29T03:55:31.507Z,46.82
2018-09-29T03:57:59.465Z,46.74
2018-09-29T04:00:26.196Z,47.54
2018-09-29T04:02:53.745Z,47.54
2018-09-29T04:05:21.268Z,47.53
2018-09-29T04:07:48.751Z,46.72
2018-09-29T04:10:16.381Z,47.61
2018-09-29T04:12:43.225Z,47.39
2018-09-29T04:15:10.804Z,47.34
2018-09-29T04:17:38.333Z,47.51
2018-09-29T04:20:06.353Z,46.73
2018-09-29T04:22:33.969Z,46.63
2018-09-29T04:25:00.625Z,46.69
2018-09-29T04:27:27.286Z,47.44
2018-09-29T04:29:54.917Z,46.42
2018-09-29T04:32:22.550Z,46.70
2018-09-29T04:34:50.157Z,47.07
2018-09-29T04:37:16.889Z,46.71
2018-09-29T04:39:44.407Z,47.19
2018-09-29T04:42:11.525Z,46.91
2018-09-29T04:44:38.282Z,46.78
2018-09-29T04:47:05.514Z,47.68
2018-09-29T04:49:33.114Z,46.73
2018-09-29T04:51:59.777Z,46.66
2018-09-29T04:54:28.114Z,47.52
2018-09-29T04:56:55.548Z,47.29
2018-09-29T04:59:23.213Z,46.46
2018-09-29T05:01:50.781Z,47.18
2018-09-29T05:04:18.468Z,47.12
2018-09-29T05:06:46.061Z,47.06
2018-09-29T05:09:13.637Z,46.68
2018-09-29T05:11:41.254Z,47.62
2018-09-29T05:14:08.767Z,47.75
2018-09-29T05:16:36.376Z,47.66
2018-09-29T05:19:03.041Z,47.78
2018-09-29T05:21:30.636Z,47.29
2018-09-29T05:23:57.329Z,46.85
2018-09-29T05:26:24.768Z,46.55
2018-09-29T05:28:52.553Z,47.13
2018-09-29T05:31:19.269Z,46.90
2018-09-29T05:33:46.843Z,46.77
2018-09-29T05:36:14.476Z,46.84
2018-09-29T05:38:41.127Z,46.66
2018-09-29T05:41:07.868Z,47.27
2018-09-29T05:43:34.512Z,47.21
2018-09-29T05:46:01.212Z,47.29
2018-09-29T05:48:28.912Z,46.74
2018-09-29T05:50:55.592Z,46.71
2018-09-29T05:53:23.177Z,47.42
2018-09-29T05:55:49.825Z,47.21
2018-09-29T05:58:17.388Z,46.47
2018-09-29T06:00:44.138Z,46.98
2018-09-29T06:03:10.772Z,46.54
2018-09-29T06:05:38.419Z,46.55
2018-09-29T06:08:05.623Z,46.52
2018-09-29T06:10:32.264Z,46.60
2018-09-29T06:12:58.916Z,46.60
2018-09-29T06:15:25.557Z,46.59
2018-09-29T06:17:52.277Z,47.20
2018-09-29T06:20:18.956Z,47.29
2018-09-29T06:22:45.661Z,46.46
2018-09-29T06:25:12.352Z,47.17
2018-09-29T06:27:39.100Z,47.35
2018-09-29T06:30:06.593Z,46.62
2018-09-29T06:32:33.261Z,47.32
2018-09-29T06:34:59.909Z,47.41
2018-09-29T06:37:28.236Z,46.65
2018-09-29T06:39:55.852Z,47.47
2018-09-29T06:42:23.475Z,47.01
2018-09-29T06:44:50.121Z,47.40
2018-09-29T06:47:16.800Z,47.45
2018-09-29T06:49:44.473Z,46.90
2018-09-29T06:52:11.104Z,47.44
2018-09-29T06:54:37.806Z,46.62
2018-09-29T06:57:04.424Z,47.05
2018-09-29T06:59:31.094Z,47.67
2018-09-29T07:01:59.687Z,47.82
2018-09-29T07:04:26.361Z,47.88
2018-09-29T07:06:53.007Z,47.95
2018-09-29T07:09:19.660Z,47.77
2018-09-29T07:11:46.349Z,47.97
2018-09-29T07:14:13.001Z,48.00
2018-09-29T07:16:39.644Z,47.78
2018-09-29T07:19:07.566Z,48.24
2018-09-29T07:21:34.320Z,47.47
2018-09-29T07:24:00.943Z,48.19
2018-09-29T07:26:29.125Z,47.89
2018-09-29T07:28:55.908Z,48.10
2018-09-29T07:31:22.585Z,48.17
2018-09-29T07:33:50.156Z,47.23
2018-09-29T07:36:17.760Z,47.54
2018-09-29T07:38:44.449Z,48.27
2018-09-29T07:41:12.065Z,47.28
2018-09-29T07:43:38.697Z,48.29
2018-09-29T07:46:07.103Z,47.48
2018-09-29T07:48:36.028Z,47.64
2018-09-29T07:51:03.586Z,47.16
2018-09-29T07:53:30.265Z,47.68
2018-09-29T07:55:57.964Z,47.14
2018-09-29T07:58:24.726Z,47.79
2018-09-29T08:00:52.293Z,48.69
2018-09-29T08:03:19.930Z,48.04
2018-09-29T08:05:47.493Z,47.93
2018-09-29T08:08:15.013Z,47.88
2018-09-29T08:10:42.743Z,47.70
2018-09-29T08:13:10.234Z,47.39
2018-09-29T08:15:36.920Z,47.45
2018-09-29T08:18:03.668Z,48.38
2018-09-29T08:20:31.472Z,48.49
2018-09-29T08:22:58.816Z,47.80
2018-09-29T08:25:25.489Z,48.05
2018-09-29T08:27:53.114Z,48.97
2018-09-29T08:30:19.792Z,48.58
2018-09-29T08:32:47.284Z,47.99
2018-09-29T08:35:13.965Z,48.47
2018-09-29T08:37:40.640Z,48.67
2018-09-29T08:40:07.432Z,49.21
2018-09-29T08:42:34.244Z,48.60
2018-09-29T08:45:00.884Z,49.01
2018-09-29T08:47:29.480Z,49.41
2018-09-29T08:49:56.209Z,49.31
2018-09-29T08:52:22.903Z,49.49
2018-09-29T08:54:50.512Z,48.55
2018-09-29T08:57:17.988Z,48.73
2018-09-29T08:59:44.636Z,49.49
2018-09-29T09:02:12.129Z,48.77
2018-09-29T09:04:38.776Z,49.04
2018-09-29T09:07:06.490Z,48.79
2018-09-29T09:09:33.756Z,49.41
2018-09-29T09:12:00.367Z,48.88
2018-09-29T09:14:29.378Z,49.64
2018-09-29T09:16:57.100Z,48.27
2018-09-29T09:19:24.472Z,48.59
2018-09-29T09:21:51.122Z,47.74
2018-09-29T09:24:17.869Z,48.94
2018-09-29T09:26:44.479Z,48.86
2018-09-29T09:29:11.282Z,48.95
2018-09-29T09:31:37.949Z,49.32
2018-09-29T09:34:05.547Z,49.02
2018-09-29T09:36:32.277Z,49.14
2018-09-29T09:38:59.977Z,49.40
2018-09-29T09:41:26.709Z,49.60
2018-09-29T09:43:54.217Z,49.68
2018-09-29T09:46:20.900Z,49.27
2018-09-29T09:48:47.541Z,48.76
2018-09-29T09:51:14.231Z,49.63
2018-09-29T09:53:40.884Z,48.14
2018-09-29T09:56:07.637Z,48.65
2018-09-29T09:58:35.974Z,49.58
2018-09-29T10:01:09.123Z,48.94
2018-09-29T10:03:36.797Z,48.71
2018-09-29T10:06:03.481Z,49.93
2018-09-29T10:08:30.825Z,49.85
2018-09-29T10:10:57.477Z,46.35
2018-09-29T10:13:25.127Z,48.23
2018-09-29T10:15:52.748Z,48.05
2018-09-29T10:18:19.430Z,47.85
2018-09-29T10:20:46.094Z,47.81
2018-09-29T10:23:12.783Z,47.33
2018-09-29T10:25:39.436Z,47.12
2018-09-29T10:28:07.457Z,47.91
2018-09-29T10:30:34.107Z,47.94
2018-09-29T10:33:00.825Z,48.30
2018-09-29T10:35:29.247Z,48.77
2018-09-29T10:37:57.276Z,47.35
2018-09-29T10:40:24.024Z,47.84
2018-09-29T10:42:51.509Z,46.64
2018-09-29T10:45:18.965Z,48.00
2018-09-29T10:47:45.669Z,48.61
2018-09-29T10:50:13.125Z,48.04
2018-09-29T10:52:40.321Z,48.80
2018-09-29T10:55:08.068Z,48.37
2018-09-29T10:57:35.957Z,48.91
2018-09-29T11:00:02.617Z,47.43
2018-09-29T11:02:30.323Z,47.01
2018-09-29T11:04:56.992Z,46.89
2018-09-29T11:07:23.753Z,48.19
2018-09-29T11:09:50.433Z,47.66
2018-09-29T11:12:17.086Z,47.52
2018-09-29T11:14:43.824Z,47.64
2018-09-29T11:17:10.470Z,48.37
2018-09-29T11:19:38.004Z,48.27
2018-09-29T11:22:06.084Z,48.16
2018-09-29T11:24:32.712Z,48.27
2018-09-29T11:26:59.984Z,49.00
2018-09-29T11:29:26.632Z,48.16
2018-09-29T11:31:53.329Z,49.09
2018-09-29T11:34:20.060Z,48.93
2018-09-29T11:36:47.651Z,48.90
2018-09-29T11:39:14.354Z,48.44
2018-09-29T11:41:41.025Z,48.39
2018-09-29T11:44:08.717Z,47.43
2018-09-29T11:46:36.436Z,47.97
2018-09-29T11:49:03.069Z,46.55
2018-09-29T11:51:29.788Z,46.69
2018-09-29T11:53:56.470Z,47.55
2018-09-29T11:56:24.051Z,47.55
2018-09-29T11:58:50.716Z,47.22
2018-09-29T12:01:18.337Z,47.56
2018-09-29T12:03:45.859Z,48.16
2018-09-29T12:06:13.539Z,47.65
2018-09-29T12:08:40.207Z,49.36
2018-09-29T12:11:06.852Z,47.26
2018-09-29T12:13:33.542Z,47.05
2018-09-29T12:16:01.158Z,46.36
2018-09-29T12:18:28.848Z,47.73
2018-09-29T12:20:55.492Z,47.30
2018-09-29T12:23:22.993Z,46.90
2018-09-29T12:25:49.644Z,47.12
2018-09-29T12:28:16.289Z,47.42
2018-09-29T12:30:42.936Z,46.72
2018-09-29T12:33:09.576Z,45.87
2018-09-29T12:35:36.863Z,47.06
2018-09-29T12:38:03.540Z,47.42
2018-09-29T12:40:31.160Z,47.80
2018-09-29T12:42:58.437Z,47.27
2018-09-29T12:45:25.085Z,47.99
2018-09-29T12:47:51.746Z,46.67
2018-09-29T12:50:19.206Z,46.63
2018-09-29T12:52:45.916Z,46.82
2018-09-29T12:55:12.563Z,47.60
2018-09-29T12:57:39.217Z,46.27
2018-09-29T13:00:06.265Z,47.91
2018-09-29T13:02:32.908Z,46.75
2018-09-29T13:05:00.025Z,47.11
2018-09-29T13:07:26.705Z,47.71
2018-09-29T13:09:53.342Z,48.34
2018-09-29T13:12:20.037Z,47.70
2018-09-29T13:14:46.689Z,49.19
2018-09-29T13:17:13.381Z,48.50
2018-09-29T13:19:40.020Z,47.70
2018-09-29T13:22:07.687Z,47.56
2018-09-29T13:24:34.373Z,46.48
2018-09-29T13:27:01.961Z,47.36
2018-09-29T13:29:29.826Z,46.76
2018-09-29T13:31:57.694Z,48.36
2018-09-29T13:34:25.220Z,47.49
2018-09-29T13:36:52.810Z,46.83
2018-09-29T13:39:19.473Z,47.09
2018-09-29T13:41:47.168Z,47.39
2018-09-29T13:44:13.857Z,46.88
2018-09-29T13:46:40.517Z,46.82
2018-09-29T13:49:07.161Z,47.15
2018-09-29T13:51:36.185Z,48.08
2018-09-29T13:54:03.780Z,48.30
2018-09-29T13:56:30.416Z,48.35
2018-09-29T13:58:58.229Z,47.86
2018-09-29T14:01:25.752Z,47.16
2018-09-29T14:03:53.488Z,46.64
2018-09-29T14:06:21.169Z,46.90
2018-09-29T14:08:48.753Z,46.12
2018-09-29T14:11:15.573Z,46.74
2018-09-29T14:13:42.225Z,46.83
2018-09-29T14:16:09.865Z,48.51
2018-09-29T14:18:36.547Z,49.11
2018-09-29T14:21:03.253Z,48.52
2018-09-29T14:23:29.957Z,48.72
2018-09-29T14:25:57.489Z,48.71
2018-09-29T14:28:24.214Z,47.92
2018-09-29T14:30:51.499Z,47.56
2018-09-29T14:33:18.972Z,47.62
2018-09-29T14:35:45.616Z,47.76
2018-09-29T14:38:13.398Z,48.14
2018-09-29T14:40:40.902Z,45.54
2018-09-29T14:43:07.678Z,45.80
2018-09-29T14:45:36.253Z,46.56
2018-09-29T14:48:03.050Z,46.70
2018-09-29T14:50:29.696Z,45.32
2018-09-29T14:52:57.214Z,43.87
2018-09-29T14:55:23.873Z,42.75
2018-09-29T14:57:50.626Z,45.15
2018-09-29T15:00:17.272Z,46.10
2018-09-29T15:02:44.008Z,47.16
2018-09-29T15:05:11.697Z,47.33
2018-09-29T15:07:38.369Z,47.06
2018-09-29T15:10:05.576Z,47.17
2018-09-29T15:12:33.000Z,46.54
2018-09-29T15:15:00.580Z,46.43
2018-09-29T15:17:27.248Z,47.49
2018-09-29T15:19:53.913Z,47.60
2018-09-29T15:22:20.552Z,47.19
2018-09-29T15:24:47.188Z,48.15
2018-09-29T15:27:13.865Z,47.74
2018-09-29T15:29:40.509Z,47.26
2018-09-29T15:32:07.171Z,47.86
2018-09-29T15:34:33.825Z,47.71
2018-09-29T15:37:00.543Z,48.33
2018-09-29T15:39:29.042Z,48.55
2018-09-29T15:41:56.805Z,47.41
2018-09-29T15:44:23.692Z,47.63
2018-09-29T15:46:51.468Z,47.44
2018-09-29T15:49:18.149Z,48.04
2018-09-29T15:51:45.920Z,47.28
2018-09-29T15:54:12.668Z,48.42
2018-09-29T15:56:39.346Z,47.85
2018-09-29T15:59:08.049Z,47.61
2018-09-29T16:01:35.663Z,48.39
2018-09-29T16:04:02.335Z,47.91
2018-09-29T16:06:30.180Z,47.61
2018-09-29T16:08:56.856Z,48.34
2018-09-29T16:11:23.555Z,47.85
2018-09-29T16:13:51.169Z,47.70
2018-09-29T16:16:17.859Z,48.09
2018-09-29T16:18:44.533Z,47.49
2018-09-29T16:21:12.216Z,47.51
2018-09-29T16:23:39.796Z,48.29
2018-09-29T16:26:06.883Z,47.14
2018-09-29T16:28:33.521Z,47.93
2018-09-29T16:31:00.221Z,47.86
2018-09-29T16:33:26.925Z,48.27
2018-09-29T16:35:53.649Z,48.63
2018-09-29T16:38:21.105Z,48.19
2018-09-29T16:40:47.833Z,47.86
2018-09-29T16:43:15.524Z,48.12
2018-09-29T16:45:43.086Z,47.63
2018-09-29T16:48:09.720Z,48.44
2018-09-29T16:50:36.365Z,48.42
2018-09-29T16:53:03.061Z,47.65
2018-09-29T16:55:29.728Z,47.60
2018-09-29T16:57:57.390Z,48.11
2018-09-29T17:00:24.049Z,48.33
2018-09-29T17:02:51.656Z,48.20
2018-09-29T17:05:18.349Z,47.24
2018-09-29T17:07:45.813Z,48.30
2018-09-29T17:10:12.501Z,47.09
2018-09-29T17:12:39.222Z,47.81
2018-09-29T17:15:06.723Z,47.37
2018-09-29T17:17:35.728Z,46.60
2018-09-29T17:20:02.404Z,46.68
2018-09-29T17:22:29.761Z,47.49
2018-09-29T17:24:56.420Z,47.37
2018-09-29T17:27:23.070Z,47.49
2018-09-29T17:29:50.706Z,46.83
2018-09-29T17:32:18.178Z,48.29
2018-09-29T17:34:45.789Z,46.75
2018-09-29T17:37:12.444Z,47.58
2018-09-29T17:39:40.069Z,47.78
2018-09-29T17:42:07.276Z,47.32
2018-09-29T17:44:33.914Z,47.18
2018-09-29T17:47:01.425Z,47.55
2018-09-29T17:49:29.163Z,47.34
2018-09-29T17:51:55.805Z,46.81
2018-09-29T17:54:22.443Z,47.70
2018-09-29T17:56:49.085Z,47.69
2018-09-29T17:59:15.746Z,47.42
2018-09-29T18:01:42.466Z,46.96
2018-09-29T18:04:09.271Z,46.78
2018-09-29T18:06:36.902Z,47.31
2018-09-29T18:09:06.556Z,47.21
2018-09-29T18:11:33.197Z,48.00
2018-09-29T18:14:00.232Z,46.46
2018-09-29T18:16:26.937Z,46.44
2018-09-29T18:18:54.609Z,47.01
2018-09-29T18:21:21.342Z,47.25
2018-09-29T18:23:48.002Z,46.68
2018-09-29T18:26:14.638Z,47.80
2018-09-29T18:28:41.279Z,47.60
2018-09-29T18:31:07.948Z,47.65
2018-09-29T18:33:35.575Z,46.94
2018-09-29T18:36:02.341Z,47.92
2018-09-29T18:38:30.181Z,47.56
2018-09-29T18:41:00.162Z,47.12
2018-09-29T18:43:30.588Z,47.98
2018-09-29T18:45:59.789Z,47.35
2018-09-29T18:48:26.510Z,47.58
2018-09-29T18:50:53.180Z,47.49
2018-09-29T18:56:19.303Z,48.51
2018-09-29T18:58:46.075Z,48.78
2018-09-29T19:01:12.804Z,48.87
2018-09-29T19:03:39.574Z,48.22
2018-09-29T19:06:07.353Z,48.10
2018-09-29T19:08:34.027Z,47.31
2018-09-29T19:11:02.745Z,48.31
2018-09-29T19:13:31.038Z,49.04
2018-09-29T19:15:57.770Z,47.80
2018-09-29T19:18:24.464Z,48.56
2018-09-29T19:20:52.081Z,48.59
2018-09-29T19:23:18.769Z,48.69
2018-09-29T19:25:45.457Z,48.81
2018-09-29T19:28:12.184Z,48.74
2018-09-29T19:30:38.865Z,48.62
2018-09-29T19:33:06.112Z,47.92
2018-09-29T19:35:32.776Z,47.67
2018-09-29T19:37:59.424Z,47.44
2018-09-29T19:40:26.073Z,48.13
2018-09-29T19:42:52.782Z,47.39
2018-09-29T19:45:20.409Z,47.62
2018-09-29T19:47:47.045Z,47.33
2018-09-29T19:50:13.709Z,47.55
2018-09-29T19:52:41.388Z,48.10
2018-09-29T19:55:08.048Z,48.26
2018-09-29T19:57:35.979Z,47.51
2018-09-29T20:00:02.689Z,47.93
2018-09-29T20:02:29.844Z,47.55
2018-09-29T20:04:56.576Z,48.17
2018-09-29T20:07:23.605Z,47.40
2018-09-29T20:09:50.245Z,48.42
2018-09-29T20:12:16.934Z,47.79
2018-09-29T20:14:43.597Z,47.98
2018-09-29T20:17:10.334Z,47.96
2018-09-29T20:19:37.065Z,48.17
2018-09-29T20:22:06.577Z,48.10
2018-09-29T20:24:33.233Z,47.74
2018-09-29T20:27:00.316Z,48.26
2018-09-29T20:29:26.997Z,48.21
2018-09-29T20:31:53.684Z,48.00
2018-09-29T20:34:20.377Z,48.11
2018-09-29T20:36:47.197Z,48.05
2018-09-29T20:39:13.864Z,47.46
2018-09-29T20:41:41.012Z,47.74
2018-09-29T20:44:07.829Z,47.28
2018-09-29T20:46:35.704Z,47.90
2018-09-29T20:49:02.393Z,47.38
2018-09-29T20:51:29.841Z,48.07
2018-09-29T20:53:57.504Z,47.50
2018-09-29T20:56:25.181Z,47.58
2018-09-29T20:58:51.882Z,48.00
2018-09-29T21:01:18.693Z,47.97
2018-09-29T21:03:46.116Z,48.02
2018-09-29T21:06:12.795Z,47.31
2018-09-29T21:08:39.488Z,47.15
2018-09-29T21:11:07.198Z,47.74
2018-09-29T21:13:33.870Z,47.62
2018-09-29T21:16:00.557Z,46.99
2018-09-29T21:18:27.216Z,47.61
2018-09-29T21:20:54.757Z,47.03
2018-09-29T21:23:22.504Z,47.04
2018-09-29T21:25:49.153Z,46.82
2018-09-29T21:28:15.871Z,46.81
2018-09-29T21:30:43.348Z,47.67
2018-09-29T21:33:10.116Z,47.46
2018-09-29T21:35:36.783Z,47.35
2018-09-29T21:38:03.430Z,47.40
2018-09-29T21:40:30.092Z,47.20
2018-09-29T21:42:56.765Z,46.51
2018-09-29T21:45:23.437Z,46.40
2018-09-29T21:47:50.089Z,46.34
2018-09-29T21:50:16.749Z,47.07
2018-09-29T21:52:43.421Z,46.89
2018-09-29T21:55:10.381Z,47.40
2018-09-29T21:57:37.050Z,46.71
2018-09-29T22:00:05.772Z,47.23
2018-09-29T22:02:33.403Z,46.76
2018-09-29T22:05:00.953Z,46.62
2018-09-29T22:07:29.426Z,46.34
2018-09-29T22:09:56.922Z,46.66
2018-09-29T22:12:23.589Z,46.96
2018-09-29T22:14:51.249Z,46.63
2018-09-29T22:17:17.902Z,47.03
2018-09-29T22:19:45.587Z,46.37
2018-09-29T22:22:12.254Z,46.23
2018-09-29T22:24:38.913Z,46.60
2018-09-29T22:27:06.569Z,46.28
2018-09-29T22:29:34.173Z,46.69
2018-09-29T22:32:00.865Z,47.86
2018-09-29T22:34:29.451Z,47.41
2018-09-29T22:36:57.076Z,47.56
2018-09-29T22:39:24.764Z,48.68
2018-09-29T22:41:51.470Z,47.19
2018-09-29T22:44:18.988Z,47.33
2018-09-29T22:46:46.493Z,47.20
2018-09-29T22:49:14.209Z,47.05
2018-09-29T22:51:41.709Z,47.26
2018-09-29T22:54:08.441Z,47.14
2018-09-29T22:56:36.320Z,47.01
2018-09-29T22:59:03.917Z,46.26
2018-09-29T23:01:31.537Z,46.02
2018-09-29T23:03:59.237Z,46.95
2018-09-29T23:06:26.845Z,46.17
2018-09-29T23:08:54.448Z,46.35
2018-09-29T23:11:21.101Z,46.91
2018-09-29T23:13:48.671Z,45.84
2018-09-29T23:16:15.322Z,46.05
2018-09-29T23:18:42.326Z,46.79
2018-09-29T23:21:09.929Z,46.76
2018-09-29T23:23:37.534Z,46.27
2018-09-29T23:26:04.224Z,46.69
2018-09-29T23:28:30.900Z,46.37
2018-09-29T23:30:57.589Z,46.53
2018-09-29T23:33:25.197Z,46.04
2018-09-29T23:35:52.745Z,46.63
2018-09-29T23:38:19.405Z,46.16
2018-09-29T23:40:46.065Z,46.66
2018-09-29T23:43:12.740Z,46.81
2018-09-29T23:45:39.467Z,46.84
2018-09-29T23:48:07.452Z,46.70
2018-09-29T23:50:34.320Z,46.05
2018-09-29T23:53:00.969Z,46.70
2018-09-29T23:55:27.633Z,46.53
2018-09-29T23:57:54.296Z,46.16
